sensor_id;sensor_type;location;lat;lon;timestamp;pressure;altitude;pressure_sealevel;temperature;humidity
36380;BME280;22411;53.016;18.632;2023-05-31T00:00:25;101614.84;;;11.38;100.00
36380;BME280;22411;53.016;18.632;2023-05-31T00:03:10;101619.41;;;11.34;100.00
36380;BME280;22411;53.016;18.632;2023-05-31T00:05:36;101614.50;;;11.28;100.00
36380;BME280;22411;53.016;18.632;2023-05-31T00:08:02;101612.09;;;11.25;100.00
36380;BME280;22411;53.016;18.632;2023-05-31T00:10:27;101615.53;;;11.25;100.00
36380;BME280;22411;53.016;18.632;2023-05-31T00:12:53;101610.59;;;11.21;100.00
36380;BME280;22411;53.016;18.632;2023-05-31T00:15:18;101618.69;;;11.15;100.00
36380;BME280;22411;53.016;18.632;2023-05-31T00:17:44;101617.97;;;11.13;100.00
36380;BME280;22411;53.016;18.632;2023-05-31T00:20:10;101618.09;;;11.10;100.00
36380;BME280;22411;53.016;18.632;2023-05-31T00:22:36;101626.38;;;11.00;100.00
36380;BME280;22411;53.016;18.632;2023-05-31T00:25:01;101622.00;;;11.01;100.00
36380;BME280;22411;53.016;18.632;2023-05-31T00:27:27;101624.78;;;10.98;100.00
36380;BME280;22411;53.016;18.632;2023-05-31T00:29:53;101622.56;;;10.90;100.00
36380;BME280;22411;53.016;18.632;2023-05-31T00:32:18;101623.91;;;10.82;100.00
36380;BME280;22411;53.016;18.632;2023-05-31T00:34:44;101619.59;;;10.81;100.00
36380;BME280;22411;53.016;18.632;2023-05-31T00:37:10;101625.19;;;10.73;100.00
36380;BME280;22411;53.016;18.632;2023-05-31T00:39:35;101614.97;;;10.70;100.00
36380;BME280;22411;53.016;18.632;2023-05-31T00:42:01;101618.66;;;10.66;100.00
36380;BME280;22411;53.016;18.632;2023-05-31T00:44:27;101616.97;;;10.65;100.00
36380;BME280;22411;53.016;18.632;2023-05-31T00:46:54;101621.50;;;10.61;100.00
36380;BME280;22411;53.016;18.632;2023-05-31T00:49:19;101621.41;;;10.63;100.00
36380;BME280;22411;53.016;18.632;2023-05-31T00:51:45;101618.13;;;10.59;100.00
36380;BME280;22411;53.016;18.632;2023-05-31T00:54:11;101615.78;;;10.55;100.00
36380;BME280;22411;53.016;18.632;2023-05-31T00:56:37;101620.19;;;10.53;100.00
36380;BME280;22411;53.016;18.632;2023-05-31T00:59:03;101617.78;;;10.50;100.00
36380;BME280;22411;53.016;18.632;2023-05-31T01:01:29;101618.00;;;10.45;100.00
36380;BME280;22411;53.016;18.632;2023-05-31T01:03:59;101624.53;;;10.52;100.00
36380;BME280;22411;53.016;18.632;2023-05-31T01:06:26;101625.78;;;10.45;100.00
36380;BME280;22411;53.016;18.632;2023-05-31T01:08:59;101622.25;;;10.46;100.00
36380;BME280;22411;53.016;18.632;2023-05-31T01:13:59;101625.06;;;10.41;100.00
36380;BME280;22411;53.016;18.632;2023-05-31T01:16:31;101629.50;;;10.39;100.00
36380;BME280;22411;53.016;18.632;2023-05-31T01:19:00;101623.09;;;10.29;100.00
36380;BME280;22411;53.016;18.632;2023-05-31T01:21:31;101638.66;;;10.29;100.00
36380;BME280;22411;53.016;18.632;2023-05-31T01:26:49;101632.03;;;10.24;100.00
36380;BME280;22411;53.016;18.632;2023-05-31T01:29:21;101633.88;;;10.20;100.00
36380;BME280;22411;53.016;18.632;2023-05-31T01:31:48;101634.94;;;10.16;100.00
36380;BME280;22411;53.016;18.632;2023-05-31T01:34:13;101626.41;;;10.14;100.00
36380;BME280;22411;53.016;18.632;2023-05-31T01:36:40;101628.16;;;10.13;100.00
36380;BME280;22411;53.016;18.632;2023-05-31T01:39:05;101628.47;;;10.07;100.00
36380;BME280;22411;53.016;18.632;2023-05-31T01:41:36;101638.97;;;10.04;100.00
36380;BME280;22411;53.016;18.632;2023-05-31T01:44:04;101626.31;;;9.98;100.00
36380;BME280;22411;53.016;18.632;2023-05-31T01:46:30;101636.75;;;9.97;100.00
36380;BME280;22411;53.016;18.632;2023-05-31T01:48:56;101641.25;;;9.93;100.00
36380;BME280;22411;53.016;18.632;2023-05-31T01:51:22;101636.06;;;9.93;100.00
36380;BME280;22411;53.016;18.632;2023-05-31T01:53:48;101630.03;;;9.92;100.00
36380;BME280;22411;53.016;18.632;2023-05-31T01:56:15;101634.44;;;9.90;100.00
36380;BME280;22411;53.016;18.632;2023-05-31T01:58:42;101640.63;;;9.88;100.00
36380;BME280;22411;53.016;18.632;2023-05-31T02:01:17;101632.06;;;9.86;100.00
36380;BME280;22411;53.016;18.632;2023-05-31T02:03:43;101651.91;;;9.87;100.00
36380;BME280;22411;53.016;18.632;2023-05-31T02:06:09;101645.88;;;9.86;100.00
36380;BME280;22411;53.016;18.632;2023-05-31T02:08:38;101658.88;;;9.85;100.00
36380;BME280;22411;53.016;18.632;2023-05-31T02:11:05;101645.09;;;9.84;100.00
36380;BME280;22411;53.016;18.632;2023-05-31T02:13:30;101650.28;;;9.84;100.00
36380;BME280;22411;53.016;18.632;2023-05-31T02:15:56;101645.09;;;9.84;100.00
36380;BME280;22411;53.016;18.632;2023-05-31T02:18:23;101642.59;;;9.83;100.00
36380;BME280;22411;53.016;18.632;2023-05-31T02:20:52;101640.91;;;9.82;100.00
36380;BME280;22411;53.016;18.632;2023-05-31T02:23:19;101640.06;;;9.81;100.00
36380;BME280;22411;53.016;18.632;2023-05-31T02:25:46;101648.81;;;9.79;100.00
36380;BME280;22411;53.016;18.632;2023-05-31T02:28:12;101644.63;;;9.76;100.00
36380;BME280;22411;53.016;18.632;2023-05-31T02:30:38;101641.34;;;9.73;100.00
36380;BME280;22411;53.016;18.632;2023-05-31T02:33:04;101642.25;;;9.72;100.00
36380;BME280;22411;53.016;18.632;2023-05-31T02:35:30;101644.06;;;9.69;100.00
36380;BME280;22411;53.016;18.632;2023-05-31T02:37:56;101646.66;;;9.69;100.00
36380;BME280;22411;53.016;18.632;2023-05-31T02:40:22;101642.53;;;9.65;100.00
36380;BME280;22411;53.016;18.632;2023-05-31T02:42:47;101643.50;;;9.63;100.00
36380;BME280;22411;53.016;18.632;2023-05-31T02:45:13;101636.66;;;9.62;100.00
36380;BME280;22411;53.016;18.632;2023-05-31T02:47:39;101634.91;;;9.62;100.00
36380;BME280;22411;53.016;18.632;2023-05-31T02:50:06;101639.97;;;9.65;100.00
36380;BME280;22411;53.016;18.632;2023-05-31T02:52:36;101639.03;;;9.66;100.00
36380;BME280;22411;53.016;18.632;2023-05-31T02:55:03;101640.78;;;9.66;100.00
36380;BME280;22411;53.016;18.632;2023-05-31T02:57:28;101636.53;;;9.65;100.00
36380;BME280;22411;53.016;18.632;2023-05-31T02:59:56;101639.13;;;9.65;100.00
36380;BME280;22411;53.016;18.632;2023-05-31T03:02:22;101639.13;;;9.65;100.00
36380;BME280;22411;53.016;18.632;2023-05-31T03:04:50;101639.97;;;9.65;100.00
36380;BME280;22411;53.016;18.632;2023-05-31T03:07:16;101644.22;;;9.66;100.00
36380;BME280;22411;53.016;18.632;2023-05-31T03:09:42;101637.38;;;9.65;100.00
36380;BME280;22411;53.016;18.632;2023-05-31T03:12:08;101641.84;;;9.62;100.00
36380;BME280;22411;53.016;18.632;2023-05-31T03:14:34;101639.03;;;9.66;100.00
36380;BME280;22411;53.016;18.632;2023-05-31T03:16:59;101644.44;;;9.62;100.00
36380;BME280;22411;53.016;18.632;2023-05-31T03:19:26;101635.00;;;9.61;100.00
36380;BME280;22411;53.016;18.632;2023-05-31T03:21:52;101633.16;;;9.63;100.00
36380;BME280;22411;53.016;18.632;2023-05-31T03:24:17;101632.25;;;9.64;100.00
36380;BME280;22411;53.016;18.632;2023-05-31T03:26:43;101632.09;;;9.67;100.00
36380;BME280;22411;53.016;18.632;2023-05-31T03:29:09;101636.44;;;9.66;100.00
36380;BME280;22411;53.016;18.632;2023-05-31T03:31:35;101630.34;;;9.67;100.00
36380;BME280;22411;53.016;18.632;2023-05-31T03:34:01;101635.44;;;9.69;100.00
36380;BME280;22411;53.016;18.632;2023-05-31T03:36:26;101635.41;;;9.71;100.00
36380;BME280;22411;53.016;18.632;2023-05-31T03:38:52;101643.09;;;9.72;100.00
36380;BME280;22411;53.016;18.632;2023-05-31T03:41:17;101638.81;;;9.71;100.00
36380;BME280;22411;53.016;18.632;2023-05-31T03:43:43;101643.16;;;9.71;100.00
36380;BME280;22411;53.016;18.632;2023-05-31T03:46:09;101649.19;;;9.71;100.00
36380;BME280;22411;53.016;18.632;2023-05-31T03:48:35;101644.00;;;9.71;100.00
36380;BME280;22411;53.016;18.632;2023-05-31T03:51:00;101647.34;;;9.73;100.00
36380;BME280;22411;53.016;18.632;2023-05-31T03:53:26;101651.56;;;9.76;100.00
36380;BME280;22411;53.016;18.632;2023-05-31T03:55:52;101650.66;;;9.77;100.00
36380;BME280;22411;53.016;18.632;2023-05-31T03:58:19;101649.66;;;9.79;100.00
36380;BME280;22411;53.016;18.632;2023-05-31T04:00:44;101649.66;;;9.79;100.00
36380;BME280;22411;53.016;18.632;2023-05-31T04:03:10;101649.44;;;9.84;100.00
36380;BME280;22411;53.016;18.632;2023-05-31T04:05:39;101651.94;;;9.85;100.00
36380;BME280;22411;53.016;18.632;2023-05-31T04:08:06;101651.28;;;9.82;100.00
36380;BME280;22411;53.016;18.632;2023-05-31T04:10:32;101652.09;;;9.82;100.00
36380;BME280;22411;53.016;18.632;2023-05-31T04:12:58;101663.50;;;9.78;100.00
36380;BME280;22411;53.016;18.632;2023-05-31T04:15:24;101659.09;;;9.80;100.00
36380;BME280;22411;53.016;18.632;2023-05-31T04:17:50;101665.97;;;9.81;100.00
36380;BME280;22411;53.016;18.632;2023-05-31T04:20:15;101662.59;;;9.79;100.00
36380;BME280;22411;53.016;18.632;2023-05-31T04:22:44;101661.63;;;9.82;100.00
36380;BME280;22411;53.016;18.632;2023-05-31T04:25:10;101659.72;;;9.85;100.00
36380;BME280;22411;53.016;18.632;2023-05-31T04:27:39;101655.22;;;9.89;100.00
36380;BME280;22411;53.016;18.632;2023-05-31T04:30:06;101662.78;;;9.93;100.00
36380;BME280;22411;53.016;18.632;2023-05-31T04:32:33;101666.91;;;9.98;100.00
36380;BME280;22411;53.016;18.632;2023-05-31T04:35:00;101661.44;;;10.04;100.00
36380;BME280;22411;53.016;18.632;2023-05-31T04:37:32;101663.75;;;10.10;100.00
36380;BME280;22411;53.016;18.632;2023-05-31T04:39:58;101671.06;;;10.19;100.00
36380;BME280;22411;53.016;18.632;2023-05-31T04:42:25;101664.78;;;10.25;100.00
36380;BME280;22411;53.016;18.632;2023-05-31T04:44:55;101662.72;;;10.31;100.00
36380;BME280;22411;53.016;18.632;2023-05-31T04:47:27;101660.75;;;10.36;100.00
36380;BME280;22411;53.016;18.632;2023-05-31T04:49:56;101664.78;;;10.42;100.00
36380;BME280;22411;53.016;18.632;2023-05-31T04:52:23;101656.78;;;10.46;100.00
36380;BME280;22411;53.016;18.632;2023-05-31T04:54:53;101666.72;;;10.56;100.00
36380;BME280;22411;53.016;18.632;2023-05-31T04:57:18;101663.81;;;10.62;100.00
36380;BME280;22411;53.016;18.632;2023-05-31T04:59:44;101667.94;;;10.66;100.00
36380;BME280;22411;53.016;18.632;2023-05-31T05:02:10;101661.66;;;10.70;100.00
36380;BME280;22411;53.016;18.632;2023-05-31T05:04:36;101660.25;;;10.80;100.00
36380;BME280;22411;53.016;18.632;2023-05-31T05:07:01;101657.31;;;10.88;100.00
36380;BME280;22411;53.016;18.632;2023-05-31T05:09:27;101666.59;;;10.92;100.00
36380;BME280;22411;53.016;18.632;2023-05-31T05:11:52;101663.59;;;10.99;100.00
36380;BME280;22411;53.016;18.632;2023-05-31T05:14:19;101663.03;;;11.10;100.00
36380;BME280;22411;53.016;18.632;2023-05-31T05:16:45;101659.13;;;11.19;100.00
36380;BME280;22411;53.016;18.632;2023-05-31T05:19:11;101664.94;;;11.24;100.00
36380;BME280;22411;53.016;18.632;2023-05-31T05:21:37;101657.41;;;11.35;100.00
36380;BME280;22411;53.016;18.632;2023-05-31T05:24:02;101658.59;;;11.45;100.00
36380;BME280;22411;53.016;18.632;2023-05-31T05:26:28;101656.41;;;11.53;100.00
36380;BME280;22411;53.016;18.632;2023-05-31T05:28:54;101645.69;;;11.60;100.00
36380;BME280;22411;53.016;18.632;2023-05-31T05:31:19;101649.44;;;11.70;100.00
36380;BME280;22411;53.016;18.632;2023-05-31T05:33:45;101651.44;;;11.81;100.00
36380;BME280;22411;53.016;18.632;2023-05-31T05:36:11;101648.47;;;11.88;100.00
36380;BME280;22411;53.016;18.632;2023-05-31T05:38:36;101643.88;;;11.93;100.00
36380;BME280;22411;53.016;18.632;2023-05-31T05:41:02;101641.59;;;12.03;100.00
36380;BME280;22411;53.016;18.632;2023-05-31T05:43:28;101637.56;;;12.13;100.00
36380;BME280;22411;53.016;18.632;2023-05-31T05:45:55;101634.34;;;12.24;100.00
36380;BME280;22411;53.016;18.632;2023-05-31T05:48:21;101629.53;;;12.32;100.00
36380;BME280;22411;53.016;18.632;2023-05-31T05:50:46;101627.38;;;12.39;100.00
36380;BME280;22411;53.016;18.632;2023-05-31T05:53:13;101625.03;;;12.50;100.00
36380;BME280;22411;53.016;18.632;2023-05-31T05:55:38;101627.72;;;12.63;100.00
36380;BME280;22411;53.016;18.632;2023-05-31T05:58:04;101628.66;;;12.76;100.00
36380;BME280;22411;53.016;18.632;2023-05-31T06:00:31;101625.16;;;12.77;100.00
36380;BME280;22411;53.016;18.632;2023-05-31T06:02:57;101631.25;;;12.76;100.00
36380;BME280;22411;53.016;18.632;2023-05-31T06:05:22;101635.28;;;12.81;100.00
36380;BME280;22411;53.016;18.632;2023-05-31T06:07:51;101637.03;;;12.95;100.00
36380;BME280;22411;53.016;18.632;2023-05-31T06:10:17;101633.44;;;12.98;100.00
36380;BME280;22411;53.016;18.632;2023-05-31T06:12:43;101639.75;;;13.08;100.00
36380;BME280;22411;53.016;18.632;2023-05-31T06:15:09;101633.78;;;13.20;100.00
36380;BME280;22411;53.016;18.632;2023-05-31T06:17:35;101636.16;;;13.25;100.00
36380;BME280;22411;53.016;18.632;2023-05-31T06:20:01;101640.03;;;13.32;100.00
36380;BME280;22411;53.016;18.632;2023-05-31T06:22:30;101635.19;;;13.40;100.00
36380;BME280;22411;53.016;18.632;2023-05-31T06:24:57;101625.88;;;13.50;100.00
36380;BME280;22411;53.016;18.632;2023-05-31T06:27:23;101633.84;;;13.62;100.00
36380;BME280;22411;53.016;18.632;2023-05-31T06:29:49;101630.34;;;13.75;100.00
36380;BME280;22411;53.016;18.632;2023-05-31T06:32:20;101629.75;;;13.84;100.00
36380;BME280;22411;53.016;18.632;2023-05-31T06:34:46;101622.09;;;13.96;100.00
36380;BME280;22411;53.016;18.632;2023-05-31T06:37:12;101625.03;;;14.04;100.00
36380;BME280;22411;53.016;18.632;2023-05-31T06:39:37;101624.63;;;14.10;100.00
36380;BME280;22411;53.016;18.632;2023-05-31T06:42:03;101622.16;;;14.21;100.00
36380;BME280;22411;53.016;18.632;2023-05-31T06:44:30;101623.75;;;14.36;100.00
36380;BME280;22411;53.016;18.632;2023-05-31T06:46:56;101617.66;;;14.50;100.00
36380;BME280;22411;53.016;18.632;2023-05-31T06:49:21;101615.69;;;14.67;100.00
36380;BME280;22411;53.016;18.632;2023-05-31T06:51:47;101612.34;;;14.77;100.00
36380;BME280;22411;53.016;18.632;2023-05-31T06:54:13;101605.34;;;14.78;100.00
36380;BME280;22411;53.016;18.632;2023-05-31T06:56:39;101612.75;;;14.84;100.00
36380;BME280;22411;53.016;18.632;2023-05-31T06:59:04;101610.41;;;14.92;100.00
36380;BME280;22411;53.016;18.632;2023-05-31T07:01:30;101605.19;;;15.05;100.00
36380;BME280;22411;53.016;18.632;2023-05-31T07:03:57;101604.88;;;15.09;100.00
36380;BME280;22411;53.016;18.632;2023-05-31T07:06:24;101597.31;;;15.17;100.00
36380;BME280;22411;53.016;18.632;2023-05-31T07:08:50;101597.41;;;15.29;100.00
36380;BME280;22411;53.016;18.632;2023-05-31T07:11:17;101603.09;;;15.47;100.00
36380;BME280;22411;53.016;18.632;2023-05-31T07:13:43;101593.66;;;15.57;100.00
36380;BME280;22411;53.016;18.632;2023-05-31T07:16:09;101601.72;;;15.66;100.00
36380;BME280;22411;53.016;18.632;2023-05-31T07:18:34;101604.09;;;15.69;100.00
36380;BME280;22411;53.016;18.632;2023-05-31T07:21:00;101595.00;;;15.62;100.00
36380;BME280;22411;53.016;18.632;2023-05-31T07:23:26;101594.59;;;15.68;100.00
36380;BME280;22411;53.016;18.632;2023-05-31T07:25:52;101598.41;;;15.76;100.00
36380;BME280;22411;53.016;18.632;2023-05-31T07:28:17;101602.47;;;15.80;100.00
36380;BME280;22411;53.016;18.632;2023-05-31T07:30:43;101598.75;;;15.71;100.00
36380;BME280;22411;53.016;18.632;2023-05-31T07:33:08;101595.75;;;15.88;100.00
36380;BME280;22411;53.016;18.632;2023-05-31T07:35:34;101592.59;;;16.07;100.00
36380;BME280;22411;53.016;18.632;2023-05-31T07:38:00;101590.28;;;16.27;100.00
36380;BME280;22411;53.016;18.632;2023-05-31T07:40:26;101584.44;;;16.23;84.16
36380;BME280;22411;53.016;18.632;2023-05-31T07:42:53;101575.56;;;16.37;82.76
36380;BME280;22411;53.016;18.632;2023-05-31T07:45:19;101571.00;;;16.28;94.42
36380;BME280;22411;53.016;18.632;2023-05-31T07:47:45;101573.28;;;16.32;85.74
36380;BME280;22411;53.016;18.632;2023-05-31T07:50:11;101575.22;;;16.41;83.31
36380;BME280;22411;53.016;18.632;2023-05-31T07:52:36;101578.19;;;16.59;87.19
36380;BME280;22411;53.016;18.632;2023-05-31T07:55:02;101570.28;;;16.83;92.43
36380;BME280;22411;53.016;18.632;2023-05-31T07:57:28;101560.00;;;17.03;88.50
36380;BME280;22411;53.016;18.632;2023-05-31T07:59:54;101564.91;;;16.96;85.24
36380;BME280;22411;53.016;18.632;2023-05-31T08:02:19;101567.03;;;16.91;83.82
36380;BME280;22411;53.016;18.632;2023-05-31T08:04:45;101558.59;;;16.98;83.72
36380;BME280;22411;53.016;18.632;2023-05-31T08:07:11;101555.94;;;17.21;82.10
36380;BME280;22411;53.016;18.632;2023-05-31T08:09:37;101546.94;;;17.46;80.05
36380;BME280;22411;53.016;18.632;2023-05-31T08:12:03;101546.97;;;17.35;82.16
36380;BME280;22411;53.016;18.632;2023-05-31T08:14:28;101539.34;;;17.32;79.89
36380;BME280;22411;53.016;18.632;2023-05-31T08:16:54;101542.69;;;17.22;84.81
36380;BME280;22411;53.016;18.632;2023-05-31T08:19:20;101547.78;;;17.46;79.18
36380;BME280;22411;53.016;18.632;2023-05-31T08:21:46;101550.75;;;17.42;74.36
36380;BME280;22411;53.016;18.632;2023-05-31T08:24:12;101556.19;;;17.50;84.26
36380;BME280;22411;53.016;18.632;2023-05-31T08:26:38;101551.97;;;17.70;77.64
36380;BME280;22411;53.016;18.632;2023-05-31T08:29:04;101547.53;;;18.02;66.99
36380;BME280;22411;53.016;18.632;2023-05-31T08:31:29;101549.06;;;18.47;66.40
36380;BME280;22411;53.016;18.632;2023-05-31T08:33:59;101542.06;;;18.88;65.05
36380;BME280;22411;53.016;18.632;2023-05-31T08:36:25;101540.31;;;19.17;64.33
36380;BME280;22411;53.016;18.632;2023-05-31T08:38:52;101549.09;;;19.47;61.77
36380;BME280;22411;53.016;18.632;2023-05-31T08:41:18;101541.47;;;19.44;56.95
36380;BME280;22411;53.016;18.632;2023-05-31T08:43:45;101546.72;;;19.44;60.44
36380;BME280;22411;53.016;18.632;2023-05-31T08:46:13;101537.72;;;19.56;61.96
36380;BME280;22411;53.016;18.632;2023-05-31T08:48:47;101540.22;;;19.77;60.65
36380;BME280;22411;53.016;18.632;2023-05-31T08:51:15;101545.38;;;19.88;58.09
36380;BME280;22411;53.016;18.632;2023-05-31T08:53:42;101542.03;;;19.47;60.76
36380;BME280;22411;53.016;18.632;2023-05-31T08:56:08;101537.72;;;19.56;58.78
36380;BME280;22411;53.016;18.632;2023-05-31T08:58:36;101531.13;;;19.62;55.68
36380;BME280;22411;53.016;18.632;2023-05-31T09:01:03;101538.06;;;19.72;52.10
36380;BME280;22411;53.016;18.632;2023-05-31T09:03:31;101543.56;;;19.59;53.96
36380;BME280;22411;53.016;18.632;2023-05-31T09:05:57;101545.78;;;19.93;54.18
36380;BME280;22411;53.016;18.632;2023-05-31T09:08:24;101539.84;;;20.48;49.56
36380;BME280;22411;53.016;18.632;2023-05-31T09:10:50;101533.31;;;20.52;48.02
36380;BME280;22411;53.016;18.632;2023-05-31T09:13:16;101539.66;;;20.86;48.64
36380;BME280;22411;53.016;18.632;2023-05-31T09:15:43;101531.97;;;21.21;44.00
36380;BME280;22411;53.016;18.632;2023-05-31T09:18:14;101527.72;;;21.37;42.45
36380;BME280;22411;53.016;18.632;2023-05-31T09:20:40;101540.81;;;21.65;43.57
36380;BME280;22411;53.016;18.632;2023-05-31T09:23:08;101543.59;;;22.07;42.20
36380;BME280;22411;53.016;18.632;2023-05-31T09:25:48;101538.59;;;22.48;41.45
36380;BME280;22411;53.016;18.632;2023-05-31T09:28:16;101537.50;;;22.59;39.35
36380;BME280;22411;53.016;18.632;2023-05-31T09:30:42;101541.31;;;23.07;38.80
36380;BME280;22411;53.016;18.632;2023-05-31T09:33:08;101540.72;;;23.45;37.39
36380;BME280;22411;53.016;18.632;2023-05-31T09:35:34;101531.16;;;23.77;38.37
36380;BME280;22411;53.016;18.632;2023-05-31T09:38:04;101523.38;;;24.00;37.85
36380;BME280;22411;53.016;18.632;2023-05-31T09:40:31;101528.78;;;24.15;37.26
36380;BME280;22411;53.016;18.632;2023-05-31T09:42:58;101523.66;;;24.21;37.89
36380;BME280;22411;53.016;18.632;2023-05-31T09:45:24;101533.41;;;24.29;37.08
36380;BME280;22411;53.016;18.632;2023-05-31T09:47:51;101527.97;;;24.14;35.03
36380;BME280;22411;53.016;18.632;2023-05-31T09:50:21;101529.69;;;23.74;34.29
36380;BME280;22411;53.016;18.632;2023-05-31T09:52:55;101523.91;;;23.79;34.00
36380;BME280;22411;53.016;18.632;2023-05-31T09:55:21;101518.78;;;23.69;34.53
36380;BME280;22411;53.016;18.632;2023-05-31T09:57:51;101516.13;;;23.86;34.35
36380;BME280;22411;53.016;18.632;2023-05-31T10:00:17;101522.66;;;24.14;34.97
36380;BME280;22411;53.016;18.632;2023-05-31T10:02:46;101516.47;;;24.55;34.21
36380;BME280;22411;53.016;18.632;2023-05-31T10:05:12;101518.94;;;24.87;32.20
36380;BME280;22411;53.016;18.632;2023-05-31T10:07:40;101511.06;;;25.10;31.41
36380;BME280;22411;53.016;18.632;2023-05-31T10:10:10;101512.94;;;25.47;31.62
36380;BME280;22411;53.016;18.632;2023-05-31T10:12:48;101513.72;;;25.79;31.01
36380;BME280;22411;53.016;18.632;2023-05-31T10:15:21;101506.34;;;25.43;32.80
36380;BME280;22411;53.016;18.632;2023-05-31T10:18:02;101508.88;;;25.37;33.58
36380;BME280;22411;53.016;18.632;2023-05-31T10:20:49;101497.66;;;25.49;35.28
36380;BME280;22411;53.016;18.632;2023-05-31T10:23:24;101502.50;;;25.84;33.52
36380;BME280;22411;53.016;18.632;2023-05-31T10:28:27;101498.78;;;26.67;30.72
36380;BME280;22411;53.016;18.632;2023-05-31T10:30:54;101496.69;;;26.83;30.72
36380;BME280;22411;53.016;18.632;2023-05-31T10:33:22;101493.16;;;26.76;30.15
36380;BME280;22411;53.016;18.632;2023-05-31T10:35:53;101491.97;;;26.79;30.26
36380;BME280;22411;53.016;18.632;2023-05-31T10:38:26;101492.84;;;25.91;30.54
36380;BME280;22411;53.016;18.632;2023-05-31T10:41:03;101485.72;;;26.06;33.12
36380;BME280;22411;53.016;18.632;2023-05-31T10:43:40;101486.34;;;26.23;31.23
36380;BME280;22411;53.016;18.632;2023-05-31T10:46:16;101488.69;;;26.62;31.64
36380;BME280;22411;53.016;18.632;2023-05-31T10:49:04;101484.84;;;27.01;28.74
36380;BME280;22411;53.016;18.632;2023-05-31T10:51:41;101472.94;;;27.18;29.78
36380;BME280;22411;53.016;18.632;2023-05-31T10:54:07;101475.97;;;27.58;30.24
36380;BME280;22411;53.016;18.632;2023-05-31T10:56:36;101476.34;;;27.55;27.57
36380;BME280;22411;53.016;18.632;2023-05-31T10:59:03;101472.13;;;27.39;28.24
36380;BME280;22411;53.016;18.632;2023-05-31T11:01:29;101466.16;;;27.65;28.32
36380;BME280;22411;53.016;18.632;2023-05-31T11:03:56;101467.31;;;27.77;28.14
36380;BME280;22411;53.016;18.632;2023-05-31T11:06:27;101463.84;;;27.55;28.23
36380;BME280;22411;53.016;18.632;2023-05-31T11:09:12;101467.97;;;27.36;27.47
36380;BME280;22411;53.016;18.632;2023-05-31T11:14:07;101463.28;;;27.10;27.67
36380;BME280;22411;53.016;18.632;2023-05-31T11:17:11;101459.09;;;27.23;28.04
36380;BME280;22411;53.016;18.632;2023-05-31T11:19:28;101456.00;;;27.04;26.77
36380;BME280;22411;53.016;18.632;2023-05-31T11:22:16;101452.34;;;27.48;26.02
36380;BME280;22411;53.016;18.632;2023-05-31T11:24:52;101441.44;;;27.43;26.16
36380;BME280;22411;53.016;18.632;2023-05-31T11:27:21;101449.66;;;27.48;26.63
36380;BME280;22411;53.016;18.632;2023-05-31T11:34:56;101440.13;;;28.30;27.10
36380;BME280;22411;53.016;18.632;2023-05-31T11:37:26;101431.19;;;28.51;26.27
36380;BME280;22411;53.016;18.632;2023-05-31T11:39:53;101430.66;;;28.82;26.04
36380;BME280;22411;53.016;18.632;2023-05-31T11:42:21;101419.63;;;29.11;25.55
36380;BME280;22411;53.016;18.632;2023-05-31T11:44:47;101430.72;;;29.02;23.20
36380;BME280;22411;53.016;18.632;2023-05-31T11:47:25;101419.97;;;28.14;24.88
36380;BME280;22411;53.016;18.632;2023-05-31T11:49:52;101423.84;;;27.42;24.72
36380;BME280;22411;53.016;18.632;2023-05-31T11:52:19;101412.13;;;26.72;25.59
36380;BME280;22411;53.016;18.632;2023-05-31T11:54:48;101405.41;;;26.55;26.24
36380;BME280;22411;53.016;18.632;2023-05-31T11:57:15;101400.34;;;26.81;26.88
36380;BME280;22411;53.016;18.632;2023-05-31T11:59:42;101389.97;;;27.36;26.16
36380;BME280;22411;53.016;18.632;2023-05-31T12:02:09;101385.47;;;27.99;25.82
36380;BME280;22411;53.016;18.632;2023-05-31T12:04:39;101380.31;;;27.91;26.57
36380;BME280;22411;53.016;18.632;2023-05-31T12:07:15;101382.59;;;27.31;26.82
36380;BME280;22411;53.016;18.632;2023-05-31T12:09:46;101385.19;;;27.25;26.97
36380;BME280;22411;53.016;18.632;2023-05-31T12:12:12;101376.72;;;27.15;28.17
36380;BME280;22411;53.016;18.632;2023-05-31T12:14:38;101374.47;;;26.90;27.67
36380;BME280;22411;53.016;18.632;2023-05-31T12:17:14;101369.63;;;26.57;29.11
36380;BME280;22411;53.016;18.632;2023-05-31T12:19:39;101373.81;;;26.88;28.07
36380;BME280;22411;53.016;18.632;2023-05-31T12:22:05;101366.22;;;27.06;28.66
36380;BME280;22411;53.016;18.632;2023-05-31T12:24:31;101360.19;;;26.98;27.07
36380;BME280;22411;53.016;18.632;2023-05-31T12:26:56;101359.28;;;26.84;28.54
36380;BME280;22411;53.016;18.632;2023-05-31T12:29:30;101351.72;;;26.88;29.58
36380;BME280;22411;53.016;18.632;2023-05-31T12:32:05;101347.97;;;26.39;28.28
36380;BME280;22411;53.016;18.632;2023-05-31T12:34:35;101353.94;;;25.75;27.62
36380;BME280;22411;53.016;18.632;2023-05-31T12:37:09;101351.00;;;25.85;29.18
36380;BME280;22411;53.016;18.632;2023-05-31T12:39:35;101342.16;;;26.14;28.66
36380;BME280;22411;53.016;18.632;2023-05-31T12:42:03;101337.75;;;25.85;28.50
36380;BME280;22411;53.016;18.632;2023-05-31T12:44:30;101337.78;;;26.06;27.74
36380;BME280;22411;53.016;18.632;2023-05-31T12:47:16;101334.97;;;26.66;26.67
36380;BME280;22411;53.016;18.632;2023-05-31T12:49:43;101328.19;;;26.84;26.29
36380;BME280;22411;53.016;18.632;2023-05-31T12:52:10;101323.94;;;26.90;27.50